createdAt,value
2023-06-01T00:00:14.417Z,5.95
2023-06-01T00:01:52.369Z,6.15
2023-06-01T00:04:18.793Z,6.55
2023-06-01T00:05:14.416Z,6.55
2023-06-01T00:06:45.668Z,5.72
2023-06-01T00:09:12.339Z,6.15
2023-06-01T00:10:14.427Z,6.15
2023-06-01T00:11:39.392Z,5.40
2023-06-01T00:14:05.913Z,5.70
2023-06-01T00:15:14.445Z,5.70
2023-06-01T00:16:32.688Z,6.10
2023-06-01T00:19:01.826Z,6.10
2023-06-01T00:20:14.420Z,6.10
2023-06-01T00:21:29.597Z,5.65
2023-06-01T00:23:56.069Z,5.78
2023-06-01T00:25:14.564Z,5.78
2023-06-01T00:26:22.643Z,5.68
2023-06-01T00:28:49.084Z,5.22
2023-06-01T00:30:14.513Z,5.22
2023-06-01T00:31:15.824Z,5.20
2023-06-01T00:33:42.363Z,5.35
2023-06-01T00:35:14.433Z,5.35
2023-06-01T00:36:09.111Z,5.63
2023-06-01T00:38:36.055Z,5.85
2023-06-01T00:40:14.478Z,5.85
2023-06-01T00:41:02.850Z,5.72
2023-06-01T00:43:29.399Z,5.47
2023-06-01T00:45:14.428Z,5.47
2023-06-01T00:45:58.175Z,5.72
2023-06-01T00:48:26.850Z,5.90
2023-06-01T00:50:14.473Z,5.90
2023-06-01T00:50:53.707Z,5.55
2023-06-01T00:53:21.335Z,5.68
2023-06-01T00:55:14.412Z,5.68
2023-06-01T00:55:48.525Z,5.25
2023-06-01T00:58:16.536Z,6.00
2023-06-01T01:00:14.435Z,6.00
2023-06-01T01:00:43.117Z,5.53
2023-06-01T01:03:10.400Z,5.40
2023-06-01T01:05:14.416Z,5.40
2023-06-01T01:05:38.893Z,5.82
2023-06-01T01:08:14.986Z,5.57
2023-06-01T01:10:14.460Z,5.57
2023-06-01T01:10:56.485Z,5.55
2023-06-01T01:13:38.529Z,5.35
2023-06-01T01:15:14.451Z,5.35
2023-06-01T01:16:21.966Z,5.50
2023-06-01T01:19:22.257Z,6.18
2023-06-01T01:20:14.439Z,6.18
2023-06-01T01:22:04.570Z,5.28
2023-06-01T01:25:34.447Z,5.90
2023-06-01T01:25:34.604Z,5.90
2023-06-01T01:28:07.161Z,5.18
2023-06-01T01:30:14.424Z,5.18
2023-06-01T01:33:04.676Z,5.70
2023-06-01T01:35:14.430Z,5.70
2023-06-01T01:35:32.398Z,5.40
2023-06-01T01:37:58.968Z,5.78
2023-06-01T01:40:14.454Z,5.78
2023-06-01T01:40:25.556Z,5.60
2023-06-01T01:42:53.605Z,5.70
2023-06-01T01:45:14.435Z,5.70
2023-06-01T01:45:21.090Z,5.80
2023-06-01T01:48:06.680Z,5.22
2023-06-01T01:50:14.463Z,5.22
2023-06-01T01:50:47.968Z,5.82
2023-06-01T01:53:15.840Z,6.40
2023-06-01T01:55:14.514Z,6.40
2023-06-01T01:55:42.485Z,5.50
2023-06-01T01:58:10.578Z,5.50
2023-06-01T02:00:14.441Z,5.50
2023-06-01T02:00:40.057Z,5.65
2023-06-01T02:03:15.460Z,6.00
2023-06-01T02:05:14.437Z,6.00
2023-06-01T02:05:41.951Z,5.88
2023-06-01T02:08:08.482Z,6.47
2023-06-01T02:10:14.437Z,6.47
2023-06-01T02:10:35.002Z,6.85
2023-06-01T02:13:01.390Z,6.65
2023-06-01T02:15:14.438Z,6.65
2023-06-01T02:15:28.006Z,5.65
2023-06-01T02:17:54.928Z,6.40
2023-06-01T02:20:14.477Z,6.40
2023-06-01T02:20:21.534Z,6.05
2023-06-01T02:22:48.014Z,5.82
2023-06-01T02:25:14.463Z,5.50
2023-06-01T02:25:14.593Z,5.50
2023-06-01T02:27:40.889Z,5.80
2023-06-01T02:30:08.650Z,5.60
2023-06-01T02:30:14.477Z,5.60
2023-06-01T02:32:35.779Z,5.70
2023-06-01T02:35:02.407Z,5.40
2023-06-01T02:35:14.471Z,5.40
2023-06-01T02:37:28.887Z,6.35
2023-06-01T02:39:55.485Z,5.57
2023-06-01T02:40:14.506Z,5.57
2023-06-01T02:42:22.178Z,5.97
2023-06-01T02:44:48.701Z,6.57
2023-06-01T02:45:14.450Z,6.57
2023-06-01T02:47:15.079Z,5.43
2023-06-01T02:49:41.575Z,5.72
2023-06-01T02:50:14.441Z,5.72
2023-06-01T02:52:08.056Z,5.80
2023-06-01T02:54:34.686Z,6.38
2023-06-01T02:55:14.556Z,6.38
2023-06-01T02:57:02.564Z,6.15
2023-06-01T02:59:28.949Z,6.13
2023-06-01T03:00:14.604Z,6.13
2023-06-01T03:01:55.706Z,6.40
2023-06-01T03:04:24.298Z,6.18
2023-06-01T03:05:14.521Z,6.18
2023-06-01T03:06:50.940Z,6.20
2023-06-01T03:09:18.195Z,6.15
2023-06-01T03:10:14.534Z,6.15
2023-06-01T03:11:44.886Z,6.18
2023-06-01T03:14:11.319Z,5.95
2023-06-01T03:15:14.522Z,5.95
2023-06-01T03:16:38.571Z,6.32
2023-06-01T03:19:05.525Z,7.10
2023-06-01T03:20:14.451Z,7.10
2023-06-01T03:21:32.671Z,7.07
2023-06-01T03:23:59.486Z,6.10
2023-06-01T03:25:16.947Z,6.10
2023-06-01T03:26:26.533Z,6.07
2023-06-01T03:28:56.182Z,7.72
2023-06-01T03:30:14.450Z,7.72
2023-06-01T03:31:23.092Z,7.07
2023-06-01T03:33:49.603Z,7.22
2023-06-01T03:35:14.454Z,7.22
2023-06-01T03:36:16.720Z,7.75
2023-06-01T03:38:43.799Z,6.70
2023-06-01T03:40:14.527Z,6.70
2023-06-01T03:41:10.453Z,6.68
2023-06-01T03:43:36.844Z,7.20
2023-06-01T03:45:14.496Z,7.20
2023-06-01T03:46:03.907Z,7.47
2023-06-01T03:48:30.385Z,7.03
2023-06-01T03:50:14.440Z,7.03
2023-06-01T03:50:56.824Z,7.68
2023-06-01T03:53:23.409Z,7.47
2023-06-01T03:55:14.569Z,7.47
2023-06-01T03:55:52.034Z,7.53
2023-06-01T03:58:20.141Z,7.20
2023-06-01T04:00:14.462Z,7.20
2023-06-01T04:00:47.557Z,8.40
2023-06-01T04:03:14.314Z,6.60
2023-06-01T04:05:14.447Z,6.60
2023-06-01T04:05:42.265Z,7.72
2023-06-01T04:08:09.923Z,7.07
2023-06-01T04:10:14.439Z,7.07
2023-06-01T04:10:36.330Z,7.78
2023-06-01T04:13:03.322Z,8.48
2023-06-01T04:15:14.457Z,8.48
2023-06-01T04:15:29.778Z,7.50
2023-06-01T04:17:56.220Z,8.10
2023-06-01T04:20:14.488Z,8.10
2023-06-01T04:20:23.980Z,8.05
2023-06-01T04:22:50.486Z,7.35
2023-06-01T04:25:14.468Z,7.35
2023-06-01T04:25:21.546Z,7.38
2023-06-01T04:27:50.101Z,8.55
2023-06-01T04:30:14.523Z,8.55
2023-06-01T04:30:17.395Z,7.18
2023-06-01T04:32:48.831Z,8.98
2023-06-01T04:35:15.870Z,8.30
2023-06-01T04:35:16.068Z,8.30
2023-06-01T04:37:43.328Z,7.95
2023-06-01T04:40:11.249Z,7.53
2023-06-01T04:40:14.797Z,7.53
2023-06-01T04:42:39.819Z,7.55
2023-06-01T04:45:08.820Z,7.93
2023-06-01T04:45:14.485Z,7.93
2023-06-01T04:47:38.738Z,9.18
2023-06-01T04:50:09.362Z,8.05
2023-06-01T04:50:14.446Z,8.05
2023-06-01T04:52:37.003Z,8.70
2023-06-01T04:55:08.018Z,8.60
2023-06-01T04:55:14.455Z,8.60
2023-06-01T04:57:35.815Z,8.82
2023-06-01T05:00:11.990Z,9.35
2023-06-01T05:00:14.765Z,9.35
2023-06-01T05:02:39.639Z,7.50
2023-06-01T05:05:07.805Z,8.43
2023-06-01T05:05:14.491Z,8.43
2023-06-01T05:07:34.732Z,8.63
2023-06-01T05:10:07.566Z,9.48
2023-06-01T05:10:14.521Z,9.48
2023-06-01T05:12:34.912Z,9.60
2023-06-01T05:15:02.911Z,8.75
2023-06-01T05:15:14.572Z,8.75
2023-06-01T05:17:29.329Z,10.18
2023-06-01T05:19:55.900Z,10.88
2023-06-01T05:20:14.465Z,10.88
2023-06-01T05:22:22.460Z,9.13
2023-06-01T05:24:48.882Z,9.32
2023-06-01T05:25:14.477Z,9.32
2023-06-01T05:27:15.269Z,8.10
2023-06-01T05:29:41.714Z,8.65
2023-06-01T05:30:14.468Z,8.65
2023-06-01T05:32:09.211Z,10.68
2023-06-01T05:34:35.808Z,8.40
2023-06-01T05:35:14.495Z,8.40
2023-06-01T05:37:02.967Z,8.40
2023-06-01T05:39:29.470Z,7.82
2023-06-01T05:40:14.556Z,7.82
2023-06-01T05:41:56.820Z,7.38
2023-06-01T05:44:23.250Z,8.73
2023-06-01T05:45:14.471Z,8.73
2023-06-01T05:46:50.413Z,8.38
2023-06-01T05:49:16.804Z,8.60
2023-06-01T05:50:14.508Z,8.60
2023-06-01T05:51:44.061Z,9.50
2023-06-01T05:54:11.196Z,8.77
2023-06-01T05:55:14.468Z,8.77
2023-06-01T05:56:38.363Z,10.25
2023-06-01T05:59:04.789Z,8.50
2023-06-01T06:00:14.486Z,8.50
2023-06-01T06:01:31.486Z,9.80
2023-06-01T06:03:58.361Z,9.20
2023-06-01T06:05:14.497Z,9.20
2023-06-01T06:06:25.607Z,11.05
2023-06-01T06:08:53.041Z,8.88
2023-06-01T06:10:14.492Z,8.88
2023-06-01T06:11:19.941Z,8.25
2023-06-01T06:13:47.334Z,10.40
2023-06-01T06:15:14.512Z,10.40
2023-06-01T06:16:13.762Z,10.80
2023-06-01T06:18:40.231Z,8.73
2023-06-01T06:20:14.494Z,8.73
2023-06-01T06:21:07.023Z,12.38
2023-06-01T06:23:33.840Z,10.10
2023-06-01T06:25:14.530Z,10.10
2023-06-01T06:26:00.489Z,10.43
2023-06-01T06:28:27.655Z,10.73
2023-06-01T06:30:14.511Z,10.73
2023-06-01T06:30:54.078Z,10.93
2023-06-01T06:33:20.561Z,10.38
2023-06-01T06:35:14.726Z,10.38
2023-06-01T06:35:47.087Z,10.18
2023-06-01T06:38:14.236Z,11.40
2023-06-01T06:40:14.597Z,11.40
2023-06-01T06:40:40.693Z,10.13
2023-06-01T06:43:07.043Z,10.80
2023-06-01T06:45:14.521Z,10.80
2023-06-01T06:45:33.438Z,10.95
2023-06-01T06:47:59.891Z,12.68
2023-06-01T06:50:14.538Z,12.68
2023-06-01T06:50:26.376Z,9.35
2023-06-01T06:52:52.900Z,10.15
2023-06-01T06:55:14.481Z,10.15
2023-06-01T06:55:19.437Z,10.85
2023-06-01T06:57:46.104Z,11.48
2023-06-01T07:00:16.085Z,11.23
2023-06-01T07:00:16.321Z,11.23
2023-06-01T07:02:43.202Z,9.02
2023-06-01T07:05:11.769Z,9.10
2023-06-01T07:05:14.478Z,9.10
2023-06-01T07:07:38.989Z,10.65
2023-06-01T07:10:06.946Z,10.05
2023-06-01T07:10:14.485Z,10.05
2023-06-01T07:12:33.411Z,9.38
2023-06-01T07:14:59.792Z,9.43
2023-06-01T07:15:14.514Z,9.43
2023-06-01T07:17:26.455Z,8.30
2023-06-01T07:19:52.861Z,9.95
2023-06-01T07:20:14.485Z,9.95
2023-06-01T07:22:21.439Z,9.88
2023-06-01T07:24:48.610Z,9.20
2023-06-01T07:25:14.495Z,9.20
2023-06-01T07:27:15.525Z,8.75
2023-06-01T07:29:42.352Z,10.10
2023-06-01T07:30:14.512Z,10.10
2023-06-01T07:32:09.658Z,9.30
2023-06-01T07:34:36.712Z,9.45
2023-06-01T07:35:14.534Z,9.45
2023-06-01T07:37:16.011Z,9.77
2023-06-01T07:39:44.364Z,9.05
2023-06-01T07:40:14.668Z,9.05
2023-06-01T07:42:10.772Z,11.38
2023-06-01T07:44:37.878Z,10.48
2023-06-01T07:45:15.046Z,10.48
2023-06-01T07:47:04.764Z,10.35
2023-06-01T07:49:31.161Z,11.35
2023-06-01T07:50:14.523Z,11.35
2023-06-01T07:51:59.610Z,10.65
2023-06-01T07:54:26.224Z,10.52
2023-06-01T07:55:14.553Z,10.52
2023-06-01T07:56:52.736Z,9.82
2023-06-01T07:59:19.345Z,10.18
2023-06-01T08:00:14.518Z,10.18
2023-06-01T08:01:45.793Z,10.93
2023-06-01T08:04:12.201Z,9.07
2023-06-01T08:05:14.559Z,9.07
2023-06-01T08:06:38.882Z,9.70
2023-06-01T08:09:05.355Z,10.13
2023-06-01T08:10:14.517Z,10.13
2023-06-01T08:11:34.269Z,11.00
2023-06-01T08:14:08.457Z,12.10
2023-06-01T08:15:14.522Z,12.10
2023-06-01T08:16:35.055Z,9.98
2023-06-01T08:19:01.644Z,10.75
2023-06-01T08:20:14.495Z,10.75
2023-06-01T08:21:28.033Z,10.35
2023-06-01T08:23:57.396Z,11.43
2023-06-01T08:25:14.524Z,11.43
2023-06-01T08:26:24.516Z,10.57
2023-06-01T08:28:53.891Z,9.77
2023-06-01T08:30:14.501Z,9.77
2023-06-01T08:31:21.544Z,11.15
2023-06-01T08:33:48.665Z,10.38
2023-06-01T08:35:14.505Z,10.38
2023-06-01T08:36:15.213Z,11.00
2023-06-01T08:38:43.028Z,10.95
2023-06-01T08:40:14.632Z,10.95
2023-06-01T08:41:26.979Z,11.48
2023-06-01T08:44:02.687Z,10.73
2023-06-01T08:45:14.566Z,10.73
2023-06-01T08:46:32.069Z,12.02
2023-06-01T08:48:59.662Z,10.85
2023-06-01T08:50:14.532Z,10.85
2023-06-01T08:51:27.001Z,11.90
2023-06-01T08:53:57.034Z,12.05
2023-06-01T08:55:14.533Z,12.05
2023-06-01T08:56:23.671Z,10.77
2023-06-01T08:58:51.322Z,11.30
2023-06-01T09:00:16.252Z,11.30
2023-06-01T09:01:22.013Z,12.95
2023-06-01T09:03:49.788Z,13.30
2023-06-01T09:05:14.541Z,13.30
2023-06-01T09:06:16.463Z,13.57
2023-06-01T09:08:43.271Z,11.15
2023-06-01T09:10:14.529Z,11.15
2023-06-01T09:11:09.693Z,13.38
2023-06-01T09:13:39.212Z,12.93
2023-06-01T09:15:14.523Z,12.93
2023-06-01T09:16:06.326Z,13.48
2023-06-01T09:18:32.880Z,13.20
2023-06-01T09:20:14.536Z,13.20
2023-06-01T09:21:16.312Z,12.90
2023-06-01T09:23:43.592Z,13.55
2023-06-01T09:25:14.547Z,13.55
2023-06-01T09:26:12.358Z,13.05
2023-06-01T09:28:59.480Z,12.98
2023-06-01T09:30:14.546Z,12.98
2023-06-01T09:31:48.738Z,12.80
2023-06-01T09:34:19.377Z,13.90
2023-06-01T09:35:14.516Z,13.90
2023-06-01T09:36:50.602Z,13.85
2023-06-01T09:39:20.036Z,13.20
2023-06-01T09:40:14.543Z,13.20
2023-06-01T09:42:07.637Z,13.90
2023-06-01T09:44:39.439Z,12.55
2023-06-01T09:45:14.529Z,12.55
2023-06-01T09:47:15.878Z,14.38
2023-06-01T09:49:44.044Z,14.23
2023-06-01T09:50:14.547Z,14.23
2023-06-01T09:52:15.839Z,14.75
2023-06-01T09:54:45.605Z,14.85
2023-06-01T09:55:14.515Z,14.85
2023-06-01T09:57:13.307Z,13.88
2023-06-01T09:59:45.011Z,13.63
2023-06-01T10:00:14.568Z,13.63
2023-06-01T10:02:19.385Z,12.63
2023-06-01T10:04:50.443Z,13.98
2023-06-01T10:05:14.547Z,13.98
2023-06-01T10:07:18.956Z,12.80
2023-06-01T10:09:49.928Z,11.85
2023-06-01T10:10:14.530Z,11.85
2023-06-01T10:12:16.687Z,12.65
2023-06-01T10:14:43.298Z,14.05
2023-06-01T10:15:26.236Z,14.05
2023-06-01T10:17:10.617Z,14.70
2023-06-01T10:19:40.995Z,13.50
2023-06-01T10:20:14.516Z,13.50
2023-06-01T10:22:11.914Z,14.32
2023-06-01T10:24:44.600Z,12.77
2023-06-01T10:25:14.610Z,12.77
2023-06-01T10:29:44.649Z,13.95
2023-06-01T10:30:14.518Z,13.95
2023-06-01T10:32:39.120Z,14.63
2023-06-01T10:35:07.031Z,12.25
2023-06-01T10:35:14.529Z,12.25
2023-06-01T10:37:34.412Z,12.07
2023-06-01T10:40:21.730Z,12.88
2023-06-01T10:40:21.981Z,12.88
2023-06-01T10:42:48.918Z,10.32
2023-06-01T10:45:36.930Z,12.40
2023-06-01T10:45:37.128Z,12.40
2023-06-01T10:48:04.882Z,9.43
2023-06-01T10:50:14.536Z,9.43
2023-06-01T10:50:32.161Z,11.07
2023-06-01T10:53:26.902Z,10.10
2023-06-01T10:55:14.620Z,10.10
2023-06-01T10:56:28.733Z,10.18
2023-06-01T10:59:18.191Z,9.77
2023-06-01T11:00:14.746Z,9.77
2023-06-01T11:01:47.514Z,9.32
2023-06-01T11:04:14.994Z,8.82
2023-06-01T11:05:14.527Z,8.82
2023-06-01T11:06:44.208Z,8.50
2023-06-01T11:09:12.986Z,8.98
2023-06-01T11:10:14.715Z,8.98
2023-06-01T11:11:49.132Z,9.10
2023-06-01T11:14:17.113Z,9.10
2023-06-01T11:15:14.566Z,9.10
2023-06-01T11:16:43.590Z,8.88
2023-06-01T11:19:11.896Z,8.63
2023-06-01T11:20:14.642Z,8.63
2023-06-01T11:21:47.161Z,8.40
2023-06-01T11:24:15.577Z,9.63
2023-06-01T11:25:14.563Z,9.63
2023-06-01T11:26:49.659Z,8.50
2023-06-01T11:29:23.397Z,8.68
2023-06-01T11:30:14.560Z,8.68
2023-06-01T11:32:01.558Z,7.70
2023-06-01T11:34:46.612Z,8.70
2023-06-01T11:35:14.542Z,8.70
2023-06-01T11:37:14.704Z,8.73
2023-06-01T11:39:41.913Z,8.13
2023-06-01T11:40:14.641Z,8.13
2023-06-01T11:42:17.447Z,8.20
2023-06-01T11:44:47.653Z,8.27
2023-06-01T11:45:14.546Z,8.27
2023-06-01T11:47:14.562Z,8.18
2023-06-01T11:49:49.744Z,8.68
2023-06-01T11:50:14.534Z,8.68
2023-06-01T11:52:20.106Z,8.55
2023-06-01T11:54:47.881Z,8.07
2023-06-01T11:55:14.546Z,8.07
2023-06-01T11:57:14.629Z,9.02
2023-06-01T11:59:42.847Z,7.75
2023-06-01T12:00:14.569Z,7.75
2023-06-01T12:02:30.864Z,8.07
2023-06-01T12:05:09.289Z,7.82
2023-06-01T12:05:14.547Z,7.82
2023-06-01T12:07:52.025Z,8.55
2023-06-01T12:10:14.561Z,8.55
2023-06-01T12:10:20.821Z,8.15
2023-06-01T12:12:48.054Z,8.23
2023-06-01T12:15:19.397Z,8.27
2023-06-01T12:15:19.861Z,8.27
2023-06-01T12:20:14.559Z,8.38
2023-06-01T12:20:37.308Z,8.15
2023-06-01T12:23:17.208Z,9.00
2023-06-01T12:25:14.553Z,9.00
2023-06-01T12:25:56.300Z,8.05
2023-06-01T12:28:24.410Z,7.70
2023-06-01T12:30:14.547Z,7.70
2023-06-01T12:31:06.838Z,7.35
2023-06-01T12:33:37.879Z,8.15
2023-06-01T12:35:14.578Z,8.15
2023-06-01T12:36:06.272Z,9.32
2023-06-01T12:38:51.512Z,7.72
2023-06-01T12:40:14.626Z,7.72
2023-06-01T12:41:19.463Z,9.00
2023-06-01T12:43:46.902Z,7.75
2023-06-01T12:45:14.556Z,7.75
2023-06-01T12:46:22.919Z,8.40
2023-06-01T12:48:50.834Z,7.95
2023-06-01T12:50:14.549Z,7.95
2023-06-01T12:51:17.930Z,7.40
2023-06-01T12:53:44.440Z,8.13
2023-06-01T12:55:14.553Z,8.13
2023-06-01T12:56:12.181Z,7.50
2023-06-01T12:58:39.774Z,7.80
2023-06-01T13:00:14.587Z,7.80
2023-06-01T13:01:06.579Z,8.10
2023-06-01T13:03:34.516Z,7.90
2023-06-01T13:05:14.603Z,7.90
2023-06-01T13:06:01.621Z,8.18
2023-06-01T13:08:28.498Z,8.75
2023-06-01T13:10:14.601Z,8.75
2023-06-01T13:10:55.412Z,8.60
2023-06-01T13:13:22.299Z,7.82
2023-06-01T13:15:14.696Z,7.82
2023-06-01T13:15:48.861Z,7.50
2023-06-01T13:18:15.428Z,8.52
2023-06-01T13:20:14.642Z,8.52
2023-06-01T13:20:41.988Z,8.18
2023-06-01T13:23:09.559Z,8.65
2023-06-01T13:25:16.613Z,8.65
2023-06-01T13:25:36.277Z,8.10
2023-06-01T13:28:02.942Z,8.23
2023-06-01T13:30:14.706Z,8.23
2023-06-01T13:30:30.155Z,7.60
2023-06-01T13:32:57.600Z,8.88
2023-06-01T13:35:14.752Z,8.88
2023-06-01T13:35:24.538Z,8.18
2023-06-01T13:37:51.418Z,8.63
2023-06-01T13:40:15.848Z,8.63
2023-06-01T13:40:23.890Z,7.55
2023-06-01T13:42:53.976Z,7.63
2023-06-01T13:45:14.795Z,7.63
2023-06-01T13:45:21.724Z,8.43
2023-06-01T13:47:49.980Z,8.75
2023-06-01T13:50:14.815Z,8.75
2023-06-01T13:50:17.315Z,8.88
2023-06-01T13:52:44.440Z,8.80
2023-06-01T13:55:11.155Z,8.88
2023-06-01T13:55:14.813Z,8.88
2023-06-01T13:57:39.439Z,8.20
2023-06-01T14:00:07.421Z,9.27
2023-06-01T14:00:14.863Z,9.27
2023-06-01T14:02:34.071Z,8.40
2023-06-01T14:05:06.547Z,8.65
2023-06-01T14:05:19.979Z,8.65
2023-06-01T14:07:35.433Z,8.05
2023-06-01T14:10:02.028Z,7.75
2023-06-01T14:10:14.964Z,7.75
2023-06-01T14:12:31.646Z,8.32
2023-06-01T14:14:58.130Z,8.25
2023-06-01T14:15:14.965Z,8.25
2023-06-01T14:17:24.906Z,8.07
2023-06-01T14:19:56.367Z,7.35
2023-06-01T14:20:14.989Z,7.35
2023-06-01T14:22:23.650Z,7.57
2023-06-01T14:24:50.185Z,7.85
2023-06-01T14:25:14.993Z,7.85
2023-06-01T14:27:16.892Z,8.23
2023-06-01T14:29:44.636Z,8.02
2023-06-01T14:30:15.129Z,8.02
2023-06-01T14:32:11.158Z,8.45
2023-06-01T14:34:37.660Z,7.07
2023-06-01T14:35:15.080Z,7.07
2023-06-01T14:37:05.609Z,7.85
2023-06-01T14:39:32.338Z,7.18
2023-06-01T14:40:15.214Z,7.18
2023-06-01T14:41:58.722Z,7.38
2023-06-01T14:44:25.184Z,7.28
2023-06-01T14:45:15.233Z,7.28
2023-06-01T14:46:51.630Z,8.13
2023-06-01T14:49:19.841Z,9.05
2023-06-01T14:50:15.275Z,9.05
2023-06-01T14:52:01.879Z,13.02
2023-06-01T14:54:43.514Z,8.07
2023-06-01T14:55:15.716Z,8.07
2023-06-01T14:57:09.889Z,7.90
2023-06-01T14:59:38.532Z,7.50
2023-06-01T15:00:15.312Z,7.50
2023-06-01T15:02:07.957Z,7.38
2023-06-01T15:04:34.626Z,7.53
2023-06-01T15:05:15.418Z,7.53
2023-06-01T15:07:01.861Z,7.55
2023-06-01T15:09:28.424Z,7.57
2023-06-01T15:10:15.433Z,7.57
2023-06-01T15:11:54.839Z,7.60
2023-06-01T15:14:21.428Z,7.70
2023-06-01T15:15:15.412Z,7.70
2023-06-01T15:16:48.009Z,6.82
2023-06-01T15:19:14.594Z,7.25
2023-06-01T15:20:15.564Z,7.25
2023-06-01T15:21:41.400Z,7.32
2023-06-01T15:24:08.115Z,8.25
2023-06-01T15:25:15.504Z,8.25
2023-06-01T15:26:34.644Z,7.72
2023-06-01T15:29:03.279Z,7.45
2023-06-01T15:30:15.522Z,7.45
2023-06-01T15:31:29.873Z,7.97
2023-06-01T15:33:56.393Z,7.75
2023-06-01T15:35:15.590Z,7.75
2023-06-01T15:36:22.944Z,7.57
2023-06-01T15:38:49.424Z,7.07
2023-06-01T15:40:15.798Z,7.07
2023-06-01T15:41:18.071Z,7.15
2023-06-01T15:43:44.549Z,6.75
2023-06-01T15:45:15.661Z,6.75
2023-06-01T15:46:11.094Z,7.88
2023-06-01T15:48:40.427Z,7.55
2023-06-01T15:50:15.820Z,7.55
2023-06-01T15:51:08.207Z,7.35
2023-06-01T15:53:34.615Z,6.72
2023-06-01T15:55:15.720Z,6.72
2023-06-01T15:56:01.574Z,7.30
2023-06-01T15:58:28.305Z,7.82
2023-06-01T16:00:15.777Z,7.82
2023-06-01T16:01:02.025Z,7.53
2023-06-01T16:03:38.106Z,7.93
2023-06-01T16:05:15.835Z,7.93
2023-06-01T16:06:04.936Z,7.15
2023-06-01T16:08:31.446Z,6.85
2023-06-01T16:10:15.861Z,6.85
2023-06-01T16:10:57.815Z,7.65
2023-06-01T16:13:24.357Z,6.53
2023-06-01T16:15:15.903Z,6.53
2023-06-01T16:15:50.996Z,7.82
2023-06-01T16:18:18.161Z,7.03
2023-06-01T16:20:15.935Z,7.03
2023-06-01T16:20:47.649Z,7.43
2023-06-01T16:23:14.143Z,7.40
2023-06-01T16:25:15.991Z,7.40
2023-06-01T16:25:40.733Z,7.20
2023-06-01T16:28:07.186Z,7.70
2023-06-01T16:30:16.009Z,7.70
2023-06-01T16:30:33.683Z,7.45
2023-06-01T16:33:00.160Z,7.75
2023-06-01T16:35:16.031Z,7.75
2023-06-01T16:35:27.866Z,7.35
2023-06-01T16:37:54.408Z,6.57
2023-06-01T16:40:16.113Z,6.57
2023-06-01T16:40:21.305Z,8.00
2023-06-01T16:42:47.987Z,7.00
2023-06-01T16:45:14.419Z,7.43
2023-06-01T16:45:16.118Z,7.43
2023-06-01T16:47:40.949Z,7.68
2023-06-01T16:50:08.071Z,7.43
2023-06-01T16:50:16.158Z,7.43
2023-06-01T16:52:34.746Z,7.03
2023-06-01T16:55:01.317Z,7.35
2023-06-01T16:55:16.234Z,7.35
2023-06-01T17:00:02.112Z,8.32
2023-06-01T17:00:16.246Z,8.32
2023-06-01T17:02:28.870Z,8.02
2023-06-01T17:04:55.566Z,7.32
2023-06-01T17:05:16.247Z,7.32
2023-06-01T17:07:22.222Z,6.72
2023-06-01T17:09:48.683Z,7.90
2023-06-01T17:10:16.332Z,7.90
2023-06-01T17:12:18.469Z,7.25
2023-06-01T17:14:45.891Z,7.43
2023-06-01T17:15:16.467Z,7.43
2023-06-01T17:17:15.141Z,6.95
2023-06-01T17:19:41.831Z,7.65
2023-06-01T17:20:16.407Z,7.65
2023-06-01T17:22:08.428Z,7.43
2023-06-01T17:24:35.519Z,7.38
2023-06-01T17:25:16.443Z,7.38
2023-06-01T17:27:02.587Z,7.90
2023-06-01T17:29:29.049Z,7.60
2023-06-01T17:30:16.503Z,7.60
2023-06-01T17:31:55.720Z,7.15
2023-06-01T17:34:22.257Z,7.15
2023-06-01T17:35:16.612Z,7.15
2023-06-01T17:36:51.126Z,7.70
2023-06-01T17:39:22.295Z,7.28
2023-06-01T17:40:16.556Z,7.28
2023-06-01T17:41:52.761Z,7.15
2023-06-01T17:44:21.340Z,7.63
2023-06-01T17:45:16.756Z,7.63
2023-06-01T17:46:47.907Z,7.38
2023-06-01T17:49:17.075Z,7.53
2023-06-01T17:50:16.706Z,7.53
2023-06-01T17:51:43.512Z,7.60
2023-06-01T17:54:10.026Z,7.40
2023-06-01T17:55:16.761Z,7.40
2023-06-01T17:56:36.626Z,7.45
2023-06-01T17:59:03.707Z,6.95
2023-06-01T18:00:16.822Z,6.95
2023-06-01T18:01:30.397Z,7.60
2023-06-01T18:03:57.510Z,7.28
2023-06-01T18:05:16.861Z,7.28
2023-06-01T18:06:25.188Z,7.20
2023-06-01T18:08:52.223Z,7.05
2023-06-01T18:10:16.844Z,7.05
2023-06-01T18:11:18.698Z,7.25
2023-06-01T18:13:45.316Z,7.10
2023-06-01T18:15:16.879Z,7.10
2023-06-01T18:16:11.906Z,7.80
2023-06-01T18:18:42.264Z,6.85
2023-06-01T18:20:16.906Z,6.85
2023-06-01T18:21:08.658Z,7.22
2023-06-01T18:23:35.069Z,6.78
2023-06-01T18:25:17.010Z,6.78
2023-06-01T18:26:01.478Z,7.80
2023-06-01T18:28:27.892Z,6.60
2023-06-01T18:30:16.977Z,6.60
2023-06-01T18:30:57.023Z,7.15
2023-06-01T18:33:23.662Z,6.97
2023-06-01T18:35:16.977Z,6.97
2023-06-01T18:35:50.137Z,7.55
2023-06-01T18:38:20.177Z,7.75
2023-06-01T18:40:17.006Z,7.75
2023-06-01T18:40:46.796Z,6.93
2023-06-01T18:43:14.920Z,7.22
2023-06-01T18:45:17.014Z,7.22
2023-06-01T18:45:42.218Z,7.43
2023-06-01T18:48:08.881Z,6.93
2023-06-01T18:50:18.037Z,6.93
2023-06-01T18:50:35.921Z,7.03
2023-06-01T18:53:02.907Z,6.85
2023-06-01T18:55:17.129Z,6.85
2023-06-01T18:55:29.663Z,7.57
2023-06-01T18:57:56.152Z,7.40
2023-06-01T19:00:17.092Z,7.40
2023-06-01T19:00:22.845Z,6.82
2023-06-01T19:02:49.416Z,7.50
2023-06-01T19:05:22.718Z,7.03
2023-06-01T19:05:22.942Z,7.03
2023-06-01T19:07:49.465Z,6.90
2023-06-01T19:10:38.084Z,7.10
2023-06-01T19:10:38.239Z,7.10
2023-06-01T19:13:04.558Z,7.60
2023-06-01T19:15:17.227Z,7.60
2023-06-01T19:15:31.607Z,7.28
2023-06-01T19:17:58.166Z,7.18
2023-06-01T19:20:17.344Z,7.18
2023-06-01T19:20:39.743Z,7.63
2023-06-01T19:23:07.279Z,6.72
2023-06-01T19:25:17.402Z,6.72
2023-06-01T19:25:33.673Z,6.45
2023-06-01T19:28:00.286Z,6.57
2023-06-01T19:30:17.329Z,6.57
2023-06-01T19:30:27.038Z,7.03
2023-06-01T19:32:55.881Z,6.57
2023-06-01T19:35:17.383Z,6.57
2023-06-01T19:35:22.348Z,6.82
2023-06-01T19:37:49.707Z,6.75
2023-06-01T19:40:18.102Z,6.93
2023-06-01T19:40:18.228Z,6.93
2023-06-01T19:42:44.497Z,6.38
2023-06-01T19:45:21.608Z,7.07
2023-06-01T19:45:21.749Z,7.07
2023-06-01T19:47:52.954Z,5.88
2023-06-01T19:50:17.465Z,5.88
2023-06-01T19:50:31.957Z,6.65
2023-06-01T19:53:04.701Z,6.22
2023-06-01T19:55:17.508Z,6.22
2023-06-01T19:55:32.650Z,6.55
2023-06-01T19:57:59.882Z,6.55
2023-06-01T20:00:17.560Z,6.55
2023-06-01T20:00:32.100Z,6.35
2023-06-01T20:03:02.019Z,5.93
2023-06-01T20:05:17.573Z,5.93
2023-06-01T20:05:28.974Z,7.07
2023-06-01T20:08:02.239Z,6.10
2023-06-01T20:10:17.757Z,6.10
2023-06-01T20:10:32.546Z,6.40
2023-06-01T20:13:00.972Z,6.53
2023-06-01T20:15:17.630Z,6.53
2023-06-01T20:15:38.922Z,5.97
2023-06-01T20:18:07.651Z,6.47
2023-06-01T20:20:17.691Z,6.47
2023-06-01T20:20:37.994Z,6.35
2023-06-01T20:23:06.955Z,6.25
2023-06-01T20:25:17.789Z,6.25
2023-06-01T20:25:34.226Z,6.38
2023-06-01T20:28:06.618Z,5.85
2023-06-01T20:30:17.797Z,5.85
2023-06-01T20:30:45.577Z,5.88
2023-06-01T20:33:20.909Z,5.43
2023-06-01T20:35:17.740Z,5.43
2023-06-01T20:35:47.302Z,6.13
2023-06-01T20:38:14.879Z,6.07
2023-06-01T20:40:17.872Z,6.07
2023-06-01T20:40:44.363Z,6.13
2023-06-01T20:43:20.724Z,6.10
2023-06-01T20:45:17.863Z,6.10
2023-06-01T20:46:02.101Z,6.70
2023-06-01T20:48:38.041Z,6.22
2023-06-01T20:50:17.907Z,6.22
2023-06-01T20:51:05.019Z,6.13
2023-06-01T20:53:31.729Z,5.60
2023-06-01T20:55:17.901Z,5.60
2023-06-01T20:55:58.119Z,5.97
2023-06-01T20:58:31.204Z,5.90
2023-06-01T21:00:17.965Z,5.90
2023-06-01T21:00:58.170Z,5.47
2023-06-01T21:03:25.182Z,5.75
2023-06-01T21:05:18.013Z,5.75
2023-06-01T21:05:54.204Z,5.72
2023-06-01T21:11:22.293Z,5.57
2023-06-01T21:11:24.257Z,5.85
2023-06-01T21:14:04.206Z,5.78
2023-06-01T21:15:18.214Z,5.78
2023-06-01T21:19:53.385Z,6.10
2023-06-01T21:20:20.742Z,6.10
2023-06-01T21:22:19.910Z,5.97
2023-06-01T21:24:46.468Z,5.45
2023-06-01T21:25:18.160Z,5.45
2023-06-01T21:27:13.100Z,6.20
2023-06-01T21:29:39.653Z,5.47
2023-06-01T21:30:18.420Z,5.47
2023-06-01T21:32:06.538Z,6.20
2023-06-01T21:34:33.137Z,5.68
2023-06-01T21:35:18.273Z,5.68
2023-06-01T21:36:59.727Z,6.13
2023-06-01T21:39:26.510Z,5.78
2023-06-01T21:40:18.328Z,5.78
2023-06-01T21:41:53.038Z,5.80
2023-06-01T21:44:19.584Z,5.70
2023-06-01T21:45:18.327Z,5.70
2023-06-01T21:46:48.405Z,4.82
2023-06-01T21:49:16.339Z,5.82
2023-06-01T21:50:18.404Z,5.82
2023-06-01T21:51:42.923Z,5.65
2023-06-01T21:54:09.398Z,5.70
2023-06-01T21:55:18.496Z,5.70
2023-06-01T21:56:36.816Z,5.82
2023-06-01T21:59:51.163Z,5.72
2023-06-01T22:00:18.638Z,5.72
2023-06-01T22:02:21.285Z,5.65
2023-06-01T22:04:55.127Z,5.78
2023-06-01T22:05:18.499Z,5.78
2023-06-01T22:07:32.443Z,5.63
2023-06-01T22:10:07.874Z,5.65